KCDR

Details ICAO KCDR (CDR)
Name CHADRON MUNI
Region United States
Timezone America/Denver (UTC-7.0)
Plans Departing 4
Arriving 0
Stats Elevation 3,297 ft / 1,005 m (AMSL)
Location 42.837169° -103.095685°
Runways 2
Magnetic Variation 7.382° E
Sunrise 2017-12-11 14:14:45 UTC / 2017-12-11 07:14:45 Local
Sunset 2017-12-11 23:19:42 UTC / 2017-12-11 16:19:42 Local
Advertisement - Login to hide

Runways

ID Width Length Bearing (true) Bearing (mag) Surface Threshold Offset Overrun Length
02 98 ft / 30 m 6,003 ft / 1,830 m 35.00° 27.62° Concrete 784 ft / 239 m 0 ft / 0 m
11 75 ft / 23 m 4,396 ft / 1,340 m 125.10° 117.72° Concrete 0 ft / 0 m 0 ft / 0 m
20 98 ft / 30 m 6,003 ft / 1,830 m 215.00° 207.62° Concrete 499 ft / 152 m 0 ft / 0 m
29 75 ft / 23 m 4,396 ft / 1,340 m 305.10° 297.72° Concrete 0 ft / 0 m 0 ft / 0 m

Map

Weather


0- 5 10 15 20 25 30 35+ Temperature / ° C

Clouds and Precipitation
Forecast for 2017-12-12 00:00 UTC. Updated 11 minutes ago

Ground ~20,000 ft ~40,000 ft Winds

METAR

KCDR 111853Z AUTO 32019G28KT 10SM CLR 08/M09 A3030 RMK AO2 PK WND 31030/1803 SLP281 T00831089

TAF

TAF KCDR 111720Z 1118/1218 31022G35KT P6SM BKN150 FM120000 27008KT P6SM SCT150

Frequencies

Recorded 118.05 MHz ASOS
Unicom 122.80 MHz CTAF/UNICOM
Warning: Do not use this data for real-world aviation or navigation. No guarantee of current accuracy is given.